createdAt,value
2022-07-27T00:00:06.548Z,9.80
2022-07-27T00:03:05.321Z,8.80
2022-07-27T00:05:40.053Z,8.20
2022-07-27T00:08:13.657Z,8.60
2022-07-27T00:10:46.824Z,8.40
2022-07-27T00:13:20.542Z,9.70
2022-07-27T00:15:54.169Z,8.70
2022-07-27T00:18:27.828Z,8.80
2022-07-27T00:21:01.247Z,8.30
2022-07-27T00:23:34.620Z,7.90
2022-07-27T00:26:08.331Z,7.50
2022-07-27T00:28:41.888Z,8.00
2022-07-27T00:31:15.104Z,7.00
2022-07-27T00:33:48.545Z,6.10
2022-07-27T00:36:21.690Z,5.90
2022-07-27T00:38:55.024Z,5.50
2022-07-27T00:41:28.312Z,5.80
2022-07-27T00:44:05.534Z,5.60
2022-07-27T00:46:38.851Z,5.60
2022-07-27T00:49:13.165Z,5.30
2022-07-27T00:51:47.513Z,4.40
2022-07-27T00:54:21.294Z,4.40
2022-07-27T00:56:54.473Z,4.40
2022-07-27T00:59:29.052Z,4.20
2022-07-27T01:02:02.426Z,4.20
2022-07-27T01:04:36.049Z,4.50
2022-07-27T01:07:10.024Z,4.00
2022-07-27T01:09:58.737Z,4.10
2022-07-27T01:12:33.656Z,4.20
2022-07-27T01:15:08.898Z,3.80
2022-07-27T01:17:42.668Z,3.90
2022-07-27T01:20:15.955Z,4.00
2022-07-27T01:22:49.411Z,3.70
2022-07-27T01:25:23.219Z,3.40
2022-07-27T01:27:57.312Z,3.60
2022-07-27T01:30:32.069Z,3.40
2022-07-27T01:33:07.228Z,3.50
2022-07-27T01:35:41.263Z,3.30
2022-07-27T01:38:15.434Z,3.10
2022-07-27T01:40:48.738Z,3.10
2022-07-27T01:43:22.738Z,3.20
2022-07-27T01:45:56.648Z,3.70
2022-07-27T01:48:30.183Z,3.50
2022-07-27T01:51:03.694Z,2.80
2022-07-27T01:53:37.206Z,2.80
2022-07-27T01:56:14.730Z,3.00
2022-07-27T01:58:48.565Z,2.80
2022-07-27T02:01:23.092Z,2.90
2022-07-27T02:03:57.233Z,2.70
2022-07-27T02:06:30.946Z,3.00
2022-07-27T02:09:04.496Z,2.50
2022-07-27T02:11:55.916Z,2.40
2022-07-27T02:14:29.340Z,2.60
2022-07-27T02:17:02.685Z,2.70
2022-07-27T02:19:36.863Z,2.60
2022-07-27T02:22:10.014Z,2.90
2022-07-27T02:24:43.576Z,3.00
2022-07-27T02:27:16.642Z,2.20
2022-07-27T02:29:50.024Z,2.70
2022-07-27T02:32:23.809Z,2.60
2022-07-27T02:34:57.013Z,2.90
2022-07-27T02:37:30.739Z,2.90
2022-07-27T02:40:04.253Z,2.80
2022-07-27T02:42:37.856Z,2.70
2022-07-27T02:45:12.692Z,2.60
2022-07-27T02:47:46.601Z,2.60
2022-07-27T02:50:19.779Z,3.00
2022-07-27T02:52:53.222Z,2.40
2022-07-27T02:55:26.901Z,2.60
2022-07-27T02:58:00.324Z,2.40
2022-07-27T03:00:34.597Z,2.40
2022-07-27T03:03:07.929Z,2.50
2022-07-27T03:05:41.133Z,2.80
2022-07-27T03:08:14.656Z,2.50
2022-07-27T03:10:48.751Z,2.30
2022-07-27T03:13:23.357Z,2.00
2022-07-27T03:15:56.972Z,2.30
2022-07-27T03:18:30.694Z,2.00
2022-07-27T03:21:04.306Z,2.40
2022-07-27T03:23:40.826Z,2.20
2022-07-27T03:26:14.884Z,2.20
2022-07-27T03:28:48.353Z,1.80
2022-07-27T03:31:21.583Z,2.60
2022-07-27T03:33:54.980Z,2.10
2022-07-27T03:36:28.581Z,2.00
2022-07-27T03:39:06.202Z,2.10
2022-07-27T03:41:39.878Z,2.30
2022-07-27T03:44:13.370Z,1.80
2022-07-27T03:46:47.055Z,2.00
2022-07-27T03:49:20.820Z,1.80
2022-07-27T03:51:54.139Z,2.10
2022-07-27T03:54:28.189Z,1.90
2022-07-27T03:57:02.499Z,1.80
2022-07-27T03:59:35.783Z,1.90
2022-07-27T04:02:09.409Z,2.10
2022-07-27T04:04:42.824Z,1.70
2022-07-27T04:07:16.089Z,2.00
2022-07-27T04:09:49.506Z,1.60
2022-07-27T04:12:24.242Z,1.80
2022-07-27T04:14:58.450Z,2.30
2022-07-27T04:17:53.508Z,2.20
2022-07-27T04:20:25.621Z,1.90
2022-07-27T04:22:59.019Z,1.70
2022-07-27T04:25:32.720Z,1.60
2022-07-27T04:28:06.269Z,1.60
2022-07-27T04:30:39.533Z,1.60
2022-07-27T04:33:13.286Z,1.80
2022-07-27T04:35:47.049Z,1.70
2022-07-27T04:38:20.442Z,1.90
2022-07-27T04:40:58.123Z,2.00
2022-07-27T04:43:32.029Z,1.90
2022-07-27T04:46:11.766Z,2.40
2022-07-27T04:48:49.489Z,2.00
2022-07-27T04:51:23.659Z,1.70
2022-07-27T04:53:58.361Z,1.70
2022-07-27T04:56:32.394Z,1.60
2022-07-27T04:59:05.924Z,1.90
2022-07-27T05:01:39.284Z,2.60
2022-07-27T05:04:13.078Z,1.70
2022-07-27T05:06:47.123Z,1.80
2022-07-27T05:09:22.525Z,1.90
2022-07-27T05:11:56.214Z,1.80
2022-07-27T05:14:29.517Z,1.60
2022-07-27T05:17:02.901Z,2.10
2022-07-27T05:19:40.300Z,1.50
2022-07-27T05:22:14.033Z,1.90
2022-07-27T05:24:47.271Z,1.70
2022-07-27T05:27:20.368Z,2.00
2022-07-27T05:29:53.516Z,1.60
2022-07-27T05:32:27.418Z,2.10
2022-07-27T05:35:00.851Z,1.30
2022-07-27T05:37:34.094Z,1.40
2022-07-27T05:40:09.331Z,1.40
2022-07-27T05:42:45.536Z,1.60
2022-07-27T05:45:19.365Z,1.60
2022-07-27T05:47:54.710Z,1.40
2022-07-27T05:50:28.170Z,1.00
2022-07-27T05:53:01.591Z,1.20
2022-07-27T05:55:34.916Z,1.40
2022-07-27T05:58:07.900Z,1.80
2022-07-27T06:00:41.094Z,1.40
2022-07-27T06:03:14.374Z,1.20
2022-07-27T06:05:47.432Z,1.40
2022-07-27T06:08:20.998Z,1.20
2022-07-27T06:10:54.249Z,1.50
2022-07-27T06:13:28.537Z,1.40
2022-07-27T06:16:02.090Z,1.20
2022-07-27T06:18:35.281Z,1.30
2022-07-27T06:21:08.787Z,1.20
2022-07-27T06:23:42.074Z,1.40
2022-07-27T06:26:15.680Z,1.40
2022-07-27T06:28:48.927Z,1.10
2022-07-27T06:31:22.087Z,1.10
2022-07-27T06:33:56.049Z,1.30
2022-07-27T06:36:33.591Z,1.40
2022-07-27T06:39:07.039Z,1.30
2022-07-27T06:41:40.204Z,1.20
2022-07-27T06:44:13.706Z,1.50
2022-07-27T06:46:49.523Z,1.10
2022-07-27T06:49:23.416Z,2.00
2022-07-27T06:51:56.566Z,1.50
2022-07-27T06:54:29.736Z,1.20
2022-07-27T06:57:02.703Z,1.20
2022-07-27T06:59:43.293Z,1.80
2022-07-27T07:02:17.819Z,1.40
2022-07-27T07:05:02.830Z,2.10
2022-07-27T07:07:35.988Z,1.50
2022-07-27T07:10:11.121Z,1.50
2022-07-27T07:12:44.295Z,1.40
2022-07-27T07:15:18.582Z,2.00
2022-07-27T07:17:51.934Z,1.50
2022-07-27T07:20:25.837Z,1.80
2022-07-27T07:22:59.233Z,1.40
2022-07-27T07:25:32.905Z,1.30
2022-07-27T07:28:06.300Z,1.80
2022-07-27T07:30:39.756Z,1.40
2022-07-27T07:33:12.778Z,1.50
2022-07-27T07:36:12.302Z,1.80
2022-07-27T07:38:39.278Z,1.40
2022-07-27T07:41:12.501Z,1.80
2022-07-27T07:43:46.110Z,2.00
2022-07-27T07:46:19.184Z,1.90
2022-07-27T07:48:53.371Z,1.70
2022-07-27T07:51:26.531Z,2.30
2022-07-27T07:53:59.717Z,2.30
2022-07-27T07:56:33.099Z,2.10
2022-07-27T07:59:06.624Z,2.00
2022-07-27T08:01:39.993Z,1.80
2022-07-27T08:04:13.317Z,2.10
2022-07-27T08:06:46.424Z,2.10
2022-07-27T08:09:21.857Z,2.40
2022-07-27T08:11:55.172Z,2.20
2022-07-27T08:14:28.317Z,2.10
2022-07-27T08:17:01.363Z,2.60
2022-07-27T08:19:39.870Z,2.30
2022-07-27T08:22:13.483Z,2.10
2022-07-27T08:24:46.560Z,1.70
2022-07-27T08:27:19.939Z,1.70
2022-07-27T08:29:53.011Z,1.80
2022-07-27T08:32:28.783Z,2.30
2022-07-27T08:35:02.666Z,1.90
2022-07-27T08:37:36.283Z,1.90
2022-07-27T08:43:05.552Z,1.80
2022-07-27T08:45:42.055Z,1.90
2022-07-27T08:48:18.160Z,1.80
2022-07-27T08:50:52.375Z,1.80
2022-07-27T08:53:26.400Z,2.10
2022-07-27T08:56:19.610Z,1.90
2022-07-27T08:58:52.731Z,1.50
2022-07-27T09:01:26.098Z,1.60
2022-07-27T09:03:59.561Z,2.10
2022-07-27T09:06:53.414Z,1.70
2022-07-27T09:09:27.833Z,1.90
2022-07-27T09:12:12.445Z,2.00
2022-07-27T09:14:51.113Z,1.50
2022-07-27T09:17:48.016Z,1.60
2022-07-27T09:20:22.880Z,2.10
2022-07-27T09:22:57.491Z,1.90
2022-07-27T09:28:34.301Z,1.90
2022-07-27T09:31:11.641Z,1.50
2022-07-27T09:33:50.142Z,1.70
2022-07-27T09:36:25.373Z,1.90
2022-07-27T09:39:03.595Z,1.70
2022-07-27T09:41:49.828Z,1.70
2022-07-27T09:44:42.125Z,1.50
2022-07-27T09:47:28.000Z,1.60
2022-07-27T09:50:21.174Z,1.90
2022-07-27T09:52:54.521Z,1.70
2022-07-27T09:55:28.270Z,1.50
2022-07-27T09:58:02.343Z,1.60
2022-07-27T10:00:35.611Z,1.60
2022-07-27T10:03:09.996Z,2.20
2022-07-27T10:05:44.078Z,1.80
2022-07-27T10:08:17.879Z,2.10
2022-07-27T10:10:51.683Z,1.70
2022-07-27T10:13:26.104Z,1.80
2022-07-27T10:16:00.957Z,2.00
2022-07-27T10:18:44.536Z,1.70
2022-07-27T10:21:31.073Z,1.70
2022-07-27T10:24:06.602Z,1.70
2022-07-27T10:26:41.769Z,1.70
2022-07-27T10:29:22.852Z,1.80
2022-07-27T10:32:03.657Z,2.10
2022-07-27T10:34:42.990Z,1.50
2022-07-27T10:37:18.210Z,1.70
2022-07-27T10:40:15.785Z,1.90
2022-07-27T10:42:54.407Z,2.10
2022-07-27T10:46:00.335Z,1.80
2022-07-27T10:48:48.101Z,1.80
2022-07-27T10:51:38.560Z,2.00
2022-07-27T10:54:24.159Z,2.10
2022-07-27T10:57:00.220Z,2.00
2022-07-27T11:00:11.176Z,2.10
2022-07-27T11:02:46.576Z,2.60
2022-07-27T11:05:58.445Z,2.30
2022-07-27T11:08:35.972Z,2.40
2022-07-27T11:11:08.731Z,1.80
2022-07-27T11:13:41.948Z,1.80
2022-07-27T11:16:24.408Z,2.30
2022-07-27T11:19:01.851Z,2.30
2022-07-27T11:21:37.630Z,2.20
2022-07-27T11:26:50.007Z,2.20
2022-07-27T11:29:25.361Z,1.80
2022-07-27T11:32:01.165Z,1.90
2022-07-27T11:34:36.117Z,2.00
2022-07-27T11:37:19.637Z,2.20
2022-07-27T11:40:05.015Z,1.90
2022-07-27T11:42:53.748Z,1.90
2022-07-27T11:45:33.443Z,2.00
2022-07-27T11:48:10.199Z,1.80
2022-07-27T11:51:00.584Z,1.70
2022-07-27T11:53:34.347Z,1.70
2022-07-27T11:56:08.228Z,1.80
2022-07-27T11:59:14.864Z,1.50
2022-07-27T12:01:52.805Z,1.50
2022-07-27T12:04:31.425Z,1.50
2022-07-27T12:07:11.035Z,1.50
2022-07-27T12:09:48.552Z,1.40
2022-07-27T12:12:23.581Z,1.80
2022-07-27T12:14:58.366Z,1.90
2022-07-27T12:17:33.510Z,1.30
2022-07-27T12:20:09.561Z,1.60
2022-07-27T12:22:44.844Z,1.50
2022-07-27T12:25:33.059Z,1.40
2022-07-27T12:30:41.687Z,1.60
2022-07-27T12:33:30.137Z,1.10
2022-07-27T12:36:05.249Z,1.60
2022-07-27T12:38:46.256Z,1.40
2022-07-27T12:41:29.851Z,1.40
2022-07-27T12:44:10.701Z,1.30
2022-07-27T12:46:59.877Z,1.50
2022-07-27T12:49:36.181Z,1.40
2022-07-27T12:52:13.959Z,1.40
2022-07-27T12:54:47.079Z,1.40
2022-07-27T12:57:33.870Z,1.70
2022-07-27T13:00:17.757Z,1.30
2022-07-27T13:02:50.995Z,1.30
2022-07-27T13:05:24.196Z,1.50
2022-07-27T13:07:57.912Z,1.30
2022-07-27T13:10:31.141Z,1.30
2022-07-27T13:13:04.342Z,1.40
2022-07-27T13:15:37.956Z,1.50
2022-07-27T13:18:23.953Z,1.10
2022-07-27T13:21:02.502Z,1.20
2022-07-27T13:23:38.383Z,1.50
2022-07-27T13:26:11.940Z,1.40
2022-07-27T13:28:45.336Z,1.30
2022-07-27T13:31:18.891Z,1.40
2022-07-27T13:33:52.933Z,1.20
2022-07-27T13:36:26.353Z,1.30
2022-07-27T13:39:00.546Z,1.50
2022-07-27T13:41:34.036Z,1.40
2022-07-27T13:44:10.364Z,1.30
2022-07-27T13:46:49.400Z,1.20
2022-07-27T13:49:23.666Z,1.20
2022-07-27T13:51:57.014Z,1.70
2022-07-27T13:54:30.927Z,1.20
2022-07-27T13:57:04.363Z,1.30
2022-07-27T13:59:37.757Z,1.30
2022-07-27T14:02:11.861Z,1.60
2022-07-27T14:04:45.163Z,1.50
2022-07-27T14:07:18.425Z,1.60
2022-07-27T14:10:09.815Z,1.30
2022-07-27T14:12:43.416Z,1.30
2022-07-27T14:15:17.085Z,3.70
2022-07-27T14:17:50.690Z,1.40
2022-07-27T14:20:24.357Z,1.40
2022-07-27T14:22:57.982Z,1.20
2022-07-27T14:25:32.410Z,1.50
2022-07-27T14:28:06.181Z,1.60
2022-07-27T14:30:40.106Z,2.10
2022-07-27T14:33:13.465Z,1.50
2022-07-27T14:35:46.748Z,1.50
2022-07-27T14:38:26.986Z,1.60
2022-07-27T14:41:04.531Z,1.80
2022-07-27T14:43:38.012Z,1.10
2022-07-27T14:46:11.533Z,1.50
2022-07-27T14:51:38.975Z,1.30
2022-07-27T14:54:12.440Z,1.30
2022-07-27T14:56:45.979Z,1.70
2022-07-27T14:59:19.718Z,1.40
2022-07-27T15:01:54.396Z,1.30
2022-07-27T15:04:28.296Z,1.60
2022-07-27T15:07:02.286Z,1.60
2022-07-27T15:09:36.242Z,1.20
2022-07-27T15:12:10.613Z,1.70
2022-07-27T15:14:44.009Z,1.30
2022-07-27T15:17:17.656Z,1.50
2022-07-27T15:19:52.027Z,1.40
2022-07-27T15:22:25.822Z,1.70
2022-07-27T15:24:59.097Z,1.50
2022-07-27T15:27:32.780Z,1.40
2022-07-27T15:30:07.412Z,1.30
2022-07-27T15:32:40.592Z,1.60
2022-07-27T15:35:14.291Z,1.50
2022-07-27T15:37:54.623Z,1.30
2022-07-27T15:40:41.927Z,1.60
2022-07-27T15:43:17.576Z,1.50
2022-07-27T15:45:52.412Z,1.60
2022-07-27T15:48:26.532Z,1.50
2022-07-27T15:51:00.066Z,1.40
2022-07-27T15:53:33.983Z,1.50
2022-07-27T15:56:07.593Z,1.40
2022-07-27T15:58:41.252Z,1.50
2022-07-27T16:01:14.638Z,1.50
2022-07-27T16:03:48.544Z,1.20
2022-07-27T16:06:22.224Z,1.40
2022-07-27T16:08:55.570Z,1.40
2022-07-27T16:11:29.606Z,1.80
2022-07-27T16:14:03.089Z,1.70
2022-07-27T16:16:36.659Z,1.50
2022-07-27T16:19:14.341Z,1.40
2022-07-27T16:21:53.725Z,1.70
2022-07-27T16:24:31.329Z,1.50
2022-07-27T16:27:08.427Z,1.60
2022-07-27T16:29:41.816Z,1.50
2022-07-27T16:32:15.090Z,1.40
2022-07-27T16:34:48.672Z,1.40
2022-07-27T16:37:22.491Z,1.50
2022-07-27T16:39:55.873Z,1.70
2022-07-27T16:42:29.383Z,1.70
2022-07-27T16:45:02.647Z,1.30
2022-07-27T16:47:36.821Z,1.50
2022-07-27T16:50:11.499Z,1.40
2022-07-27T16:52:44.714Z,1.50
2022-07-27T16:55:18.194Z,1.40
2022-07-27T16:57:51.652Z,1.40
2022-07-27T17:00:25.267Z,1.50
2022-07-27T17:02:58.623Z,1.70
2022-07-27T17:05:32.566Z,1.40
2022-07-27T17:08:06.768Z,1.50
2022-07-27T17:10:40.180Z,1.30
2022-07-27T17:13:15.173Z,1.60
2022-07-27T17:15:49.052Z,1.60
2022-07-27T17:18:23.224Z,1.90
2022-07-27T17:20:57.152Z,1.90
2022-07-27T17:23:35.910Z,1.30
2022-07-27T17:26:10.713Z,1.50
2022-07-27T17:28:44.683Z,2.30
2022-07-27T17:31:19.174Z,1.60
2022-07-27T17:33:53.028Z,1.80
2022-07-27T17:36:27.181Z,1.80
2022-07-27T17:39:02.693Z,1.70
2022-07-27T17:41:36.329Z,1.80
2022-07-27T17:44:10.029Z,2.10
2022-07-27T17:46:43.932Z,1.60
2022-07-27T17:49:17.544Z,1.40
2022-07-27T17:51:51.246Z,1.50
2022-07-27T17:54:24.934Z,1.60
2022-07-27T17:56:58.466Z,1.60
2022-07-27T17:59:37.941Z,1.80
2022-07-27T18:02:13.024Z,2.00
2022-07-27T18:04:47.210Z,1.90
2022-07-27T18:07:20.920Z,2.20
2022-07-27T18:09:55.006Z,2.10
2022-07-27T18:12:29.089Z,2.20
2022-07-27T18:15:20.627Z,2.50
2022-07-27T18:17:54.207Z,1.80
2022-07-27T18:20:27.887Z,2.10
2022-07-27T18:23:00.998Z,1.90
2022-07-27T18:25:34.469Z,2.00
2022-07-27T18:28:08.403Z,2.70
2022-07-27T18:30:41.794Z,2.30
2022-07-27T18:33:15.422Z,2.10
2022-07-27T18:35:49.968Z,3.80
2022-07-27T18:38:23.745Z,2.20
2022-07-27T18:40:57.033Z,2.00
2022-07-27T18:43:30.949Z,2.50
2022-07-27T18:46:04.725Z,2.30
2022-07-27T18:48:38.857Z,2.30
2022-07-27T18:51:12.148Z,2.60
2022-07-27T18:53:45.640Z,2.60
2022-07-27T18:56:19.737Z,2.70
2022-07-27T18:58:55.103Z,2.60
2022-07-27T19:01:28.611Z,2.90
2022-07-27T19:04:02.787Z,2.90
2022-07-27T19:06:37.390Z,3.10
2022-07-27T19:09:11.463Z,3.60
2022-07-27T19:11:46.229Z,3.00
2022-07-27T19:14:23.895Z,3.10
2022-07-27T19:16:58.268Z,3.30
2022-07-27T19:19:32.361Z,2.80
2022-07-27T19:22:07.058Z,2.80
2022-07-27T19:24:42.383Z,3.10
2022-07-27T19:27:17.915Z,3.00
2022-07-27T19:29:52.229Z,3.30
2022-07-27T19:32:27.217Z,3.00
2022-07-27T19:35:01.493Z,2.90
2022-07-27T19:37:36.341Z,2.70
2022-07-27T19:40:41.390Z,3.50
2022-07-27T19:43:07.187Z,3.10
2022-07-27T19:45:42.076Z,4.00
2022-07-27T19:48:16.998Z,3.60
2022-07-27T19:50:51.012Z,3.80
2022-07-27T19:53:25.182Z,3.90
2022-07-27T19:56:00.466Z,3.60
2022-07-27T19:58:34.762Z,3.70
2022-07-27T20:01:10.369Z,3.50
2022-07-27T20:03:52.125Z,3.80
2022-07-27T20:06:29.882Z,3.80
2022-07-27T20:09:08.038Z,4.70
2022-07-27T20:14:14.979Z,3.90
2022-07-27T20:16:51.285Z,3.60
2022-07-27T20:19:27.789Z,4.30
2022-07-27T20:22:02.772Z,2.90
2022-07-27T20:24:38.064Z,3.00
2022-07-27T20:27:12.127Z,2.70
2022-07-27T20:29:46.323Z,2.20
2022-07-27T20:32:19.949Z,3.50
2022-07-27T20:34:54.295Z,2.80
2022-07-27T20:37:28.057Z,2.70
2022-07-27T20:40:02.090Z,2.90
2022-07-27T20:42:35.950Z,2.70
2022-07-27T20:45:16.065Z,2.60
2022-07-27T20:47:50.013Z,2.80
2022-07-27T20:50:23.742Z,2.80
2022-07-27T20:52:58.566Z,3.40
2022-07-27T20:55:33.404Z,2.90
2022-07-27T20:58:06.687Z,2.50
2022-07-27T21:00:40.611Z,2.40
2022-07-27T21:03:13.864Z,2.50
2022-07-27T21:05:47.205Z,2.60
2022-07-27T21:08:20.620Z,2.50
2022-07-27T21:10:54.229Z,2.50
2022-07-27T21:13:28.538Z,2.40
2022-07-27T21:16:02.092Z,3.20
2022-07-27T21:18:36.140Z,2.50
2022-07-27T21:21:09.349Z,3.00
2022-07-27T21:24:00.298Z,2.30
2022-07-27T21:26:36.383Z,2.50
2022-07-27T21:29:10.975Z,2.00
2022-07-27T21:31:49.168Z,2.50
2022-07-27T21:34:24.535Z,1.90
2022-07-27T21:36:57.789Z,2.10
2022-07-27T21:39:31.681Z,2.00
2022-07-27T21:42:05.447Z,2.70
2022-07-27T21:44:38.967Z,2.20
2022-07-27T21:47:14.405Z,2.10
2022-07-27T21:49:48.206Z,2.40
2022-07-27T21:52:21.733Z,2.00
2022-07-27T21:54:55.651Z,2.00
2022-07-27T21:57:29.208Z,2.30
2022-07-27T22:00:02.606Z,2.60
2022-07-27T22:02:37.770Z,2.10
2022-07-27T22:05:12.147Z,2.70
2022-07-27T22:07:45.592Z,2.20
2022-07-27T22:10:59.642Z,2.30
2022-07-27T22:13:36.108Z,2.00
2022-07-27T22:16:13.286Z,2.00
2022-07-27T22:18:47.531Z,2.30
2022-07-27T22:21:21.545Z,2.40
2022-07-27T22:23:55.328Z,2.50
2022-07-27T22:26:29.038Z,2.40
2022-07-27T22:29:02.743Z,2.40
2022-07-27T22:31:36.417Z,2.30
2022-07-27T22:34:10.450Z,2.50
2022-07-27T22:36:44.346Z,2.40
2022-07-27T22:39:18.669Z,2.20
2022-07-27T22:41:52.096Z,2.20
2022-07-27T22:44:25.585Z,2.10
2022-07-27T22:46:59.259Z,2.10
2022-07-27T22:49:32.506Z,2.00
2022-07-27T22:52:06.462Z,2.30
2022-07-27T22:54:40.309Z,2.80
2022-07-27T22:57:14.135Z,2.10
2022-07-27T22:59:47.153Z,2.60
2022-07-27T23:02:21.249Z,2.10
2022-07-27T23:04:56.660Z,2.10
2022-07-27T23:07:30.362Z,2.20
2022-07-27T23:10:03.887Z,2.10
2022-07-27T23:12:37.043Z,1.80
2022-07-27T23:15:11.976Z,2.10
2022-07-27T23:17:45.412Z,2.40
2022-07-27T23:20:19.061Z,2.30
2022-07-27T23:22:52.681Z,2.20
2022-07-27T23:25:36.285Z,2.10
2022-07-27T23:28:10.178Z,2.30
2022-07-27T23:30:44.046Z,2.40
2022-07-27T23:33:17.657Z,2.00
2022-07-27T23:35:51.425Z,2.40
2022-07-27T23:38:24.692Z,2.70
2022-07-27T23:40:58.289Z,2.40
2022-07-27T23:43:31.657Z,2.10
2022-07-27T23:46:04.966Z,2.20
2022-07-27T23:48:38.775Z,2.40
2022-07-27T23:51:17.128Z,2.10
2022-07-27T23:53:50.789Z,2.30
2022-07-27T23:56:24.143Z,2.60
2022-07-27T23:58:57.850Z,2.40
